Kithnos, Greece
Current Conditions -  °F | °C
As of 12:50 PM on Wednesday 22 Oct 2014 (Local Time) from LGAV Reporting Station
Few Clouds Few Clouds  
Wind Chill: 23°   Ceiling: Unl
Heat Index: 23°   Visibility: 6mi
Dew Point:   Wind: 14mph
Humidity: 41%   Direction: 210°SSW
Pressure: 29.8"   Gusts: NA
Location:  37.42°N, 24.43°E
Report Text: LGAV 220950Z 21012KT 9999 FEW035 23/09 Q1009 NOSIG
Loading
Personal Weather Stations






























Interactive Weather Map
Tropical Storm Tracking
New forecast layout! Learn more

10-Day Weather Forecast

Advertisements
Track Severe Weather on mobile